createdAt,value
2023-09-10T00:01:41.173Z,28.10
2023-09-10T00:04:09.156Z,27.10
2023-09-10T00:06:37.544Z,28.95
2023-09-10T00:09:09.209Z,30.33
2023-09-10T00:11:37.154Z,26.50
2023-09-10T00:14:05.094Z,28.05
2023-09-10T00:16:33.489Z,26.02
2023-09-10T00:19:02.782Z,26.10
2023-09-10T00:21:30.643Z,25.50
2023-09-10T00:23:58.532Z,24.92
2023-09-10T00:26:28.148Z,29.23
2023-09-10T00:28:56.086Z,27.53
2023-09-10T00:31:24.171Z,24.30
2023-09-10T00:33:52.058Z,23.92
2023-09-10T00:36:21.337Z,27.70
2023-09-10T00:38:49.177Z,27.13
2023-09-10T00:41:17.052Z,28.55
2023-09-10T00:43:44.929Z,32.38
2023-09-10T00:46:13.343Z,27.92
2023-09-10T00:48:41.755Z,32.28
2023-09-10T00:51:10.530Z,35.50
2023-09-10T00:53:40.137Z,30.88
2023-09-10T00:56:08.652Z,29.73
2023-09-10T00:58:36.747Z,34.97
2023-09-10T01:01:04.983Z,34.95
2023-09-10T01:03:36.703Z,30.83
2023-09-10T01:06:04.858Z,35.65
2023-09-10T01:08:32.759Z,26.38
2023-09-10T01:11:10.768Z,29.33
2023-09-10T01:13:48.457Z,39.35
2023-09-10T01:16:25.674Z,31.02
2023-09-10T01:19:00.386Z,40.05
2023-09-10T01:21:41.344Z,34.40
2023-09-10T01:24:16.108Z,41.75
2023-09-10T01:26:45.376Z,45.97
2023-09-10T01:29:15.033Z,52.03
2023-09-10T01:31:46.819Z,46.35
2023-09-10T01:34:17.611Z,51.50
2023-09-10T01:36:51.071Z,56.47
2023-09-10T01:39:25.856Z,84.30
2023-09-10T01:41:55.977Z,68.85
2023-09-10T01:44:24.861Z,73.47
2023-09-10T01:46:54.350Z,55.58
2023-09-10T01:49:22.360Z,62.80
2023-09-10T01:51:50.492Z,69.85
2023-09-10T01:54:18.365Z,55.03
2023-09-10T01:56:46.275Z,77.45
2023-09-10T01:59:15.565Z,61.10
2023-09-10T02:01:43.588Z,61.92
2023-09-10T02:04:11.511Z,51.33
2023-09-10T02:06:39.570Z,59.25
2023-09-10T02:09:07.539Z,65.05
2023-09-10T02:11:35.436Z,75.10
2023-09-10T02:14:03.505Z,67.90
2023-09-10T02:16:32.812Z,72.38
2023-09-10T02:19:00.717Z,74.22
2023-09-10T02:21:28.594Z,66.55
2023-09-10T02:23:56.450Z,59.38
2023-09-10T02:26:24.360Z,64.05
2023-09-10T02:28:53.185Z,65.30
2023-09-10T02:31:23.356Z,59.92
2023-09-10T02:33:52.608Z,53.80
2023-09-10T02:36:20.464Z,64.15
2023-09-10T02:38:48.324Z,66.20
2023-09-10T02:41:16.219Z,54.10
2023-09-10T02:43:44.172Z,68.30
2023-09-10T02:46:12.118Z,62.58
2023-09-10T02:48:40.245Z,53.40
2023-09-10T02:51:09.921Z,52.33
2023-09-10T02:53:37.868Z,55.30
2023-09-10T02:56:06.167Z,41.72
2023-09-10T02:58:34.507Z,40.00
2023-09-10T03:01:06.422Z,41.22
2023-09-10T03:03:34.946Z,42.63
2023-09-10T03:06:03.041Z,40.45
2023-09-10T03:08:37.141Z,55.83
2023-09-10T03:11:06.374Z,36.83
2023-09-10T03:13:34.303Z,45.42
2023-09-10T03:16:02.278Z,40.75
2023-09-10T03:18:30.194Z,43.63
2023-09-10T03:20:58.053Z,40.25
2023-09-10T03:23:25.917Z,37.47
2023-09-10T03:25:55.181Z,42.15
2023-09-10T03:28:23.067Z,36.20
2023-09-10T03:30:50.909Z,31.90
2023-09-10T03:33:18.797Z,43.83
2023-09-10T03:35:48.092Z,36.88
2023-09-10T03:38:16.030Z,38.20
2023-09-10T03:40:43.933Z,43.97
2023-09-10T03:43:13.213Z,38.25
2023-09-10T03:45:41.045Z,39.45
2023-09-10T03:48:08.984Z,45.28
2023-09-10T03:50:37.189Z,40.53
2023-09-10T03:53:05.465Z,42.70
2023-09-10T03:55:33.366Z,39.63
2023-09-10T03:58:01.503Z,37.83
2023-09-10T04:00:30.905Z,44.60
2023-09-10T04:02:59.002Z,35.08
2023-09-10T04:05:26.949Z,37.83
2023-09-10T04:07:54.857Z,30.00
2023-09-10T04:10:22.823Z,42.08
2023-09-10T04:12:52.130Z,43.85
2023-09-10T04:15:20.028Z,42.35
2023-09-10T04:17:49.465Z,43.30
2023-09-10T04:20:17.642Z,55.13
2023-09-10T04:22:45.866Z,50.58
2023-09-10T04:25:13.746Z,46.63
2023-09-10T04:27:41.631Z,43.95
2023-09-10T04:30:10.192Z,45.97
2023-09-10T04:32:38.091Z,46.03
2023-09-10T04:35:09.297Z,51.15
2023-09-10T04:37:37.633Z,57.22
2023-09-10T04:40:08.444Z,66.82
2023-09-10T04:42:36.552Z,50.33
2023-09-10T04:45:05.581Z,42.13
2023-09-10T04:47:33.531Z,48.03
2023-09-10T04:50:01.433Z,49.08
2023-09-10T04:52:30.753Z,45.45
2023-09-10T04:54:58.615Z,38.08
2023-09-10T04:57:28.766Z,56.45
2023-09-10T04:59:56.673Z,41.13
2023-09-10T05:02:24.647Z,49.40
2023-09-10T05:04:52.638Z,52.60
2023-09-10T05:07:20.523Z,55.92
2023-09-10T05:09:49.733Z,47.35
2023-09-10T05:12:17.579Z,50.45
2023-09-10T05:14:45.474Z,49.05
2023-09-10T05:17:13.841Z,50.90
2023-09-10T05:19:42.792Z,39.90
2023-09-10T05:22:10.815Z,61.55
2023-09-10T05:24:38.665Z,40.65
2023-09-10T05:27:07.914Z,49.50
2023-09-10T05:29:35.782Z,44.72
2023-09-10T05:32:03.823Z,59.33
2023-09-10T05:34:31.773Z,43.65
2023-09-10T05:36:59.638Z,41.08
2023-09-10T05:39:27.497Z,39.92
2023-09-10T05:41:55.399Z,35.88
2023-09-10T05:44:24.669Z,48.17
2023-09-10T05:46:52.823Z,44.25
2023-09-10T05:49:20.763Z,41.75
2023-09-10T05:51:48.949Z,44.50
2023-09-10T05:54:17.806Z,43.95
2023-09-10T05:56:46.068Z,40.33
2023-09-10T05:59:13.978Z,44.08
2023-09-10T06:01:43.358Z,42.03
2023-09-10T06:04:11.490Z,41.30
2023-09-10T06:06:39.544Z,47.03
2023-09-10T06:09:07.403Z,43.13
2023-09-10T06:11:35.256Z,37.97
2023-09-10T06:14:03.901Z,40.45
2023-09-10T06:16:31.949Z,33.95
2023-09-10T06:19:01.262Z,34.88
2023-09-10T06:21:29.567Z,32.70
2023-09-10T06:23:57.428Z,30.15
2023-09-10T06:26:25.509Z,32.83
2023-09-10T06:28:53.561Z,34.10
2023-09-10T06:31:21.555Z,30.38
2023-09-10T06:33:49.427Z,33.90
2023-09-10T06:36:18.968Z,31.40
2023-09-10T06:38:49.006Z,30.38
2023-09-10T06:41:17.107Z,29.10
2023-09-10T06:43:45.043Z,26.90
2023-09-10T06:46:13.023Z,26.40
2023-09-10T06:48:41.209Z,24.95
2023-09-10T06:51:09.361Z,28.50
2023-09-10T06:53:38.615Z,32.42
2023-09-10T06:56:06.516Z,25.95
2023-09-10T06:58:34.421Z,28.98
2023-09-10T07:01:06.140Z,29.17
2023-09-10T07:03:35.984Z,31.65
2023-09-10T07:06:05.640Z,27.08
2023-09-10T07:08:33.892Z,29.53
2023-09-10T07:11:03.141Z,26.60
2023-09-10T07:13:31.513Z,23.63
2023-09-10T07:15:59.500Z,25.92
2023-09-10T07:18:28.210Z,29.60
2023-09-10T07:20:56.059Z,23.88
2023-09-10T07:23:24.003Z,20.95
2023-09-10T07:25:51.872Z,25.80
2023-09-10T07:28:21.205Z,24.15
2023-09-10T07:30:49.082Z,26.80
2023-09-10T07:33:16.993Z,25.88
2023-09-10T07:35:44.897Z,23.95
2023-09-10T07:38:12.807Z,23.30
2023-09-10T07:40:40.706Z,21.52
2023-09-10T07:43:08.578Z,20.92
2023-09-10T07:45:37.831Z,23.83
2023-09-10T07:48:06.099Z,23.83
2023-09-10T07:50:34.110Z,23.50
2023-09-10T07:53:02.005Z,19.65
2023-09-10T07:55:29.896Z,25.15
2023-09-10T07:57:57.789Z,24.52
2023-09-10T08:00:25.681Z,21.20
2023-09-10T08:02:54.939Z,19.70
2023-09-10T08:05:22.815Z,20.20
2023-09-10T08:07:50.859Z,20.73
2023-09-10T08:10:18.750Z,20.92
2023-09-10T08:12:46.600Z,19.35
2023-09-10T08:15:14.596Z,21.42
2023-09-10T08:17:42.564Z,20.63
2023-09-10T08:20:13.021Z,18.77
2023-09-10T08:22:40.941Z,18.50
2023-09-10T08:25:09.631Z,21.88
2023-09-10T08:27:37.646Z,21.67
2023-09-10T08:30:08.979Z,19.92
2023-09-10T08:32:37.824Z,18.95
2023-09-10T08:35:06.933Z,21.13
2023-09-10T08:37:36.250Z,21.15
2023-09-10T08:40:04.849Z,18.08
2023-09-10T08:42:41.044Z,19.67
2023-09-10T08:45:11.374Z,19.15
2023-09-10T08:47:41.605Z,18.73
2023-09-10T08:50:11.169Z,17.50
2023-09-10T08:52:42.409Z,18.10
2023-09-10T08:55:12.395Z,18.77
2023-09-10T08:57:41.414Z,17.83
2023-09-10T09:00:13.389Z,18.63
2023-09-10T09:02:42.124Z,18.52
2023-09-10T09:05:10.969Z,20.80
2023-09-10T09:07:47.313Z,16.33
2023-09-10T09:10:20.077Z,17.52
2023-09-10T09:12:50.069Z,17.65
2023-09-10T09:15:20.165Z,18.17
2023-09-10T09:17:50.221Z,15.68
2023-09-10T09:20:21.172Z,17.08
2023-09-10T09:22:54.195Z,16.92
2023-09-10T09:25:22.768Z,18.30
2023-09-10T09:27:52.327Z,16.25
2023-09-10T09:30:20.279Z,16.60
2023-09-10T09:32:49.677Z,20.20
2023-09-10T09:35:17.757Z,17.20
2023-09-10T09:37:45.657Z,15.05
2023-09-10T09:40:15.069Z,17.33
2023-09-10T09:42:42.998Z,17.77
2023-09-10T09:45:11.496Z,21.75
2023-09-10T09:47:39.491Z,18.05
2023-09-10T09:50:08.552Z,19.65
2023-09-10T09:52:36.420Z,14.32
2023-09-10T09:55:08.912Z,17.08
2023-09-10T09:57:38.953Z,17.85
2023-09-10T10:00:10.018Z,17.50
2023-09-10T10:02:38.071Z,17.50
2023-09-10T10:05:06.835Z,17.67
2023-09-10T10:07:50.117Z,21.15
2023-09-10T10:10:21.794Z,17.23
2023-09-10T10:12:53.433Z,14.60
2023-09-10T10:15:24.087Z,19.80
2023-09-10T10:17:54.500Z,16.95
2023-09-10T10:22:51.833Z,14.35
2023-09-10T10:25:19.810Z,15.10
2023-09-10T10:27:51.189Z,15.90
2023-09-10T10:30:19.415Z,16.05
2023-09-10T10:32:48.018Z,19.42
2023-09-10T10:35:16.240Z,16.98
2023-09-10T10:37:49.849Z,17.10
2023-09-10T10:40:21.795Z,14.40
2023-09-10T10:42:56.459Z,22.05
2023-09-10T10:45:26.676Z,14.68
2023-09-10T10:47:55.387Z,15.65
2023-09-10T10:50:28.217Z,16.58
2023-09-10T10:53:01.217Z,14.93
2023-09-10T10:55:29.856Z,14.45
2023-09-10T10:57:59.340Z,14.82
2023-09-10T11:00:28.543Z,17.15
2023-09-10T11:03:11.493Z,17.50
2023-09-10T11:06:08.540Z,16.33
2023-09-10T11:08:38.938Z,15.50
2023-09-10T11:11:10.317Z,16.05
2023-09-10T11:14:01.866Z,17.50
2023-09-10T11:16:31.896Z,16.92
2023-09-10T11:19:00.363Z,18.25
2023-09-10T11:22:01.694Z,17.27
2023-09-10T11:24:33.789Z,18.95
2023-09-10T11:27:21.978Z,17.90
2023-09-10T11:30:10.405Z,16.02
2023-09-10T11:32:38.954Z,14.95
2023-09-10T11:35:26.494Z,14.57
2023-09-10T11:37:57.102Z,15.35
2023-09-10T11:40:26.107Z,19.83
2023-09-10T11:42:54.631Z,17.35
2023-09-10T11:45:24.319Z,20.58
2023-09-10T11:47:52.738Z,17.95
2023-09-10T11:50:25.691Z,15.13
2023-09-10T11:52:53.946Z,17.25
2023-09-10T11:55:22.165Z,16.42
2023-09-10T11:57:51.584Z,15.05
2023-09-10T12:00:20.140Z,16.42
2023-09-10T12:02:49.669Z,15.85
2023-09-10T12:05:17.763Z,15.87
2023-09-10T12:07:46.543Z,17.20
2023-09-10T12:10:14.826Z,15.73
2023-09-10T12:12:45.288Z,15.20
2023-09-10T13:25:55.948Z,18.77
2023-09-10T13:28:23.957Z,20.95
2023-09-10T13:30:51.857Z,18.63
2023-09-10T13:33:19.767Z,15.13
2023-09-10T13:35:47.677Z,18.67
2023-09-10T13:38:16.616Z,15.07
2023-09-10T13:40:44.763Z,18.60
2023-09-10T13:43:13.986Z,16.00
2023-09-10T13:45:41.878Z,17.15
2023-09-10T13:48:09.760Z,19.17
2023-09-10T13:50:37.648Z,15.50
2023-09-10T13:53:05.928Z,14.90
2023-09-10T13:55:33.814Z,18.02
2023-09-10T13:58:01.658Z,17.80
2023-09-10T14:00:30.902Z,16.52
2023-09-10T14:02:58.904Z,17.38
2023-09-10T14:05:27.362Z,16.35
2023-09-10T14:07:56.595Z,18.70
2023-09-10T14:10:24.484Z,17.33
2023-09-10T14:12:53.521Z,17.92
2023-09-10T14:15:21.447Z,16.50
2023-09-10T14:17:50.730Z,20.63
2023-09-10T14:20:18.945Z,16.58
2023-09-10T14:22:46.815Z,16.63
2023-09-10T14:25:16.774Z,20.23
2023-09-10T14:27:45.366Z,16.45
2023-09-10T14:30:14.830Z,19.27
2023-09-10T14:32:43.437Z,15.35
2023-09-10T14:35:12.962Z,16.73
2023-09-10T14:37:40.874Z,20.80
2023-09-10T14:40:10.578Z,20.35
2023-09-10T14:42:38.592Z,19.15
2023-09-10T14:45:07.674Z,17.17
2023-09-10T14:47:36.485Z,22.35
2023-09-10T14:50:04.788Z,17.10
2023-09-10T14:52:34.127Z,20.27
2023-09-10T14:55:01.977Z,20.88
2023-09-10T14:57:29.839Z,19.25
2023-09-10T14:59:57.747Z,19.25
2023-09-10T15:02:25.797Z,24.73
2023-09-10T15:04:53.726Z,21.52
2023-09-10T15:07:21.590Z,18.63
2023-09-10T15:09:51.189Z,17.05
2023-09-10T15:12:19.355Z,17.17
2023-09-10T15:14:47.225Z,19.55
2023-09-10T15:17:15.112Z,19.65
2023-09-10T15:19:43.001Z,21.40
2023-09-10T15:22:10.878Z,20.88
2023-09-10T15:24:38.954Z,27.15
2023-09-10T15:27:08.461Z,22.45
2023-09-10T15:29:36.439Z,19.45
2023-09-10T15:32:04.603Z,23.00
2023-09-10T15:34:32.971Z,23.20
2023-09-10T15:37:00.878Z,21.23
2023-09-10T15:39:30.196Z,19.85
2023-09-10T15:41:58.167Z,23.38
2023-09-10T15:44:27.795Z,19.50
2023-09-10T15:46:55.722Z,21.92
2023-09-10T15:49:23.582Z,21.95
2023-09-10T15:51:51.432Z,22.75
2023-09-10T15:54:19.396Z,21.05
2023-09-10T15:56:47.314Z,22.73
2023-09-10T15:59:15.243Z,20.60
2023-09-10T16:01:44.554Z,19.88
2023-09-10T16:04:12.559Z,24.73
2023-09-10T16:06:40.523Z,23.70
2023-09-10T16:09:09.056Z,23.98
2023-09-10T16:11:37.068Z,22.83
2023-09-10T16:14:04.996Z,23.52
2023-09-10T16:16:32.923Z,24.98
2023-09-10T16:19:02.208Z,24.25
2023-09-10T16:21:30.121Z,25.25
2023-09-10T16:23:58.068Z,23.50
2023-09-10T16:26:26.071Z,20.73
2023-09-10T16:28:53.970Z,23.88
2023-09-10T16:31:21.880Z,21.25
2023-09-10T16:33:50.075Z,22.85
2023-09-10T16:36:20.438Z,26.08
2023-09-10T16:38:48.290Z,21.48
2023-09-10T16:41:16.218Z,23.27
2023-09-10T16:43:44.129Z,23.05
2023-09-10T16:46:12.088Z,24.13
2023-09-10T16:48:39.941Z,25.00
2023-09-10T16:51:07.830Z,27.60
2023-09-10T16:53:37.113Z,22.98
2023-09-10T16:56:05.981Z,24.55
2023-09-10T16:58:33.876Z,24.38
2023-09-10T17:01:01.963Z,25.45
2023-09-10T17:03:29.920Z,24.00
2023-09-10T17:05:58.355Z,22.27
2023-09-10T17:08:26.263Z,24.45
2023-09-10T17:10:55.561Z,22.20
2023-09-10T17:13:23.411Z,24.35
2023-09-10T17:15:51.683Z,24.50
2023-09-10T17:18:19.602Z,22.17
2023-09-10T17:20:47.548Z,22.73
2023-09-10T17:23:15.634Z,25.88
2023-09-10T17:25:43.540Z,22.05
2023-09-10T17:28:12.766Z,23.92
2023-09-10T17:30:40.669Z,26.42
2023-09-10T17:33:08.779Z,25.15
2023-09-10T17:35:36.855Z,26.67
2023-09-10T17:38:05.275Z,27.90
2023-09-10T17:40:33.320Z,26.90
2023-09-10T17:43:01.185Z,27.63
2023-09-10T17:45:32.509Z,27.25
2023-09-10T17:48:01.024Z,27.42
2023-09-10T17:50:30.116Z,27.40
2023-09-10T17:52:58.788Z,26.75
2023-09-10T17:55:28.904Z,29.17
2023-09-10T17:57:58.101Z,29.40
2023-09-10T18:00:27.264Z,26.27
2023-09-10T18:02:56.710Z,26.88
2023-09-10T18:05:24.743Z,27.83
2023-09-10T18:07:53.774Z,27.50
2023-09-10T18:10:22.011Z,30.30
2023-09-10T18:12:50.109Z,26.55
2023-09-10T18:15:20.144Z,24.25
2023-09-10T18:17:48.133Z,25.02
2023-09-10T18:20:17.797Z,27.63
2023-09-10T18:22:45.986Z,24.23
2023-09-10T18:25:13.906Z,28.33
2023-09-10T18:27:41.881Z,24.65
2023-09-10T18:30:10.680Z,25.02
2023-09-10T18:32:38.717Z,25.30
2023-09-10T18:35:07.416Z,23.63
2023-09-10T18:37:36.693Z,22.15
2023-09-10T18:40:05.279Z,22.42
2023-09-10T18:42:33.186Z,21.33
2023-09-10T18:45:01.050Z,22.40
2023-09-10T18:47:29.284Z,21.20
2023-09-10T18:49:58.120Z,23.27
2023-09-10T18:52:25.977Z,21.00
2023-09-10T18:54:56.677Z,21.50
2023-09-10T18:57:24.535Z,18.65
2023-09-10T18:59:52.758Z,20.95
2023-09-10T19:02:20.625Z,20.98
2023-09-10T19:04:48.561Z,19.08
2023-09-10T19:07:16.814Z,17.63
2023-09-10T19:09:47.455Z,16.80
2023-09-10T19:12:16.774Z,21.15
2023-09-10T19:14:44.723Z,20.83
2023-09-10T19:17:12.722Z,16.90
2023-09-10T19:19:40.595Z,19.02
2023-09-10T19:22:08.455Z,16.42
2023-09-10T19:24:36.411Z,19.42
2023-09-10T19:27:04.472Z,19.38
2023-09-10T19:29:34.026Z,18.92
2023-09-10T19:32:02.037Z,19.87
2023-09-10T19:34:29.944Z,19.27
2023-09-10T19:36:57.809Z,17.95
2023-09-10T19:39:26.679Z,20.13
2023-09-10T19:41:54.588Z,23.25
2023-09-10T19:44:22.677Z,23.75
2023-09-10T19:46:52.952Z,24.35
2023-09-10T19:49:20.874Z,28.13
2023-09-10T19:51:49.184Z,23.15
2023-09-10T19:54:17.405Z,24.35
2023-09-10T19:56:47.285Z,25.67
2023-09-10T19:59:15.250Z,23.02
2023-09-10T20:01:44.463Z,24.15
2023-09-10T20:04:13.980Z,24.80
2023-09-10T20:06:43.275Z,25.80
2023-09-10T20:09:11.379Z,28.67
2023-09-10T20:11:39.452Z,22.40
2023-09-10T20:14:07.881Z,26.23
2023-09-10T20:16:35.903Z,23.70
2023-09-10T20:19:03.806Z,23.88
2023-09-10T20:21:33.160Z,28.38
2023-09-10T20:24:01.131Z,25.83
2023-09-10T20:26:31.275Z,26.65
2023-09-10T20:31:27.269Z,25.40
2023-09-10T20:33:55.200Z,28.77
2023-09-10T20:36:23.158Z,29.80
2023-09-10T20:38:52.396Z,26.90
2023-09-10T20:41:21.280Z,26.48
2023-09-10T20:43:49.204Z,26.52
2023-09-10T20:46:17.530Z,25.95
2023-09-10T20:48:45.483Z,26.63
2023-09-10T20:51:13.403Z,27.02
2023-09-10T20:53:41.665Z,28.63
2023-09-10T20:56:11.118Z,29.42
2023-09-10T20:58:38.984Z,31.73
2023-09-10T21:01:06.898Z,30.35
2023-09-10T21:03:34.854Z,32.72
2023-09-10T21:06:03.231Z,29.67
2023-09-10T21:08:31.497Z,30.50
2023-09-10T21:11:00.035Z,35.15
2023-09-10T21:13:29.262Z,31.65
2023-09-10T21:15:57.407Z,29.67
2023-09-10T21:18:25.404Z,34.17
2023-09-10T21:20:53.523Z,32.95
2023-09-10T21:23:21.431Z,32.90
2023-09-10T21:25:49.358Z,31.60
2023-09-10T21:28:17.233Z,31.60
2023-09-10T21:30:50.292Z,33.65
2023-09-10T21:33:18.408Z,33.60
2023-09-10T21:35:46.560Z,33.92
2023-09-10T21:38:15.127Z,33.75
2023-09-10T21:40:43.232Z,33.03
2023-09-10T21:43:10.142Z,32.40
2023-09-10T21:45:40.040Z,32.13
2023-09-10T21:48:10.421Z,29.20
2023-09-10T21:53:06.633Z,29.52
2023-09-10T21:55:34.535Z,32.78
2023-09-10T21:58:02.384Z,30.98
2023-09-10T22:00:30.286Z,34.05
2023-09-10T22:02:58.289Z,35.85
2023-09-10T22:05:27.640Z,34.88
2023-09-10T22:07:55.538Z,30.23
2023-09-10T22:10:23.434Z,30.58
2023-09-10T22:12:51.328Z,38.53
2023-09-10T22:15:19.242Z,34.83
2023-09-10T22:17:47.144Z,35.03
2023-09-10T22:20:15.076Z,34.45
2023-09-10T22:22:44.317Z,36.92
2023-09-10T22:25:17.106Z,35.60
2023-09-10T22:27:45.848Z,37.78
2023-09-10T22:30:14.765Z,35.75
2023-09-10T22:32:43.523Z,35.42
2023-09-10T22:35:11.634Z,39.85
2023-09-10T22:37:39.619Z,32.78
2023-09-10T22:40:10.360Z,31.55
2023-09-10T22:42:38.441Z,31.92
2023-09-10T22:45:07.580Z,35.08
2023-09-10T22:47:35.629Z,35.55
2023-09-10T22:50:05.115Z,38.22
2023-09-10T22:52:33.027Z,34.95
2023-09-10T22:55:00.935Z,39.05
2023-09-10T22:57:30.903Z,33.33
2023-09-10T22:59:58.799Z,35.35
2023-09-10T23:02:26.983Z,33.10
2023-09-10T23:04:56.104Z,35.47
2023-09-10T23:07:24.290Z,42.20
2023-09-10T23:09:52.168Z,29.80
2023-09-10T23:12:20.111Z,32.80
2023-09-10T23:14:49.388Z,32.92
2023-09-10T23:17:17.286Z,30.00
2023-09-10T23:19:45.140Z,33.60
2023-09-10T23:22:13.006Z,32.13
2023-09-10T23:24:40.881Z,32.95
2023-09-10T23:27:08.773Z,29.33
2023-09-10T23:29:36.941Z,34.10
2023-09-10T23:32:06.764Z,33.22
2023-09-10T23:34:35.436Z,36.80
2023-09-10T23:37:03.314Z,33.55
2023-09-10T23:39:31.222Z,40.15
2023-09-10T23:41:59.161Z,38.65
2023-09-10T23:44:27.076Z,40.50
2023-09-10T23:46:54.999Z,38.20
2023-09-10T23:49:24.373Z,40.83
2023-09-10T23:51:52.286Z,37.13
2023-09-10T23:54:20.130Z,40.10
2023-09-10T23:56:47.999Z,39.92
2023-09-10T23:59:15.898Z,39.65
